Time;durP1;ratioP1;P1;durP2;ratioP2;P2;SDS_P1;SDS_P2;PMS_P1;PMS_P2;Temp;Humidity;BMP_temperature;BMP_pressure;BME280_temperature;BME280_humidity;BME280_pressure;Samples;Min_cycle;Max_cycle;Signal;HPM_P1;HPM_P2
2021/03/06 00:00:07;;;;;;;;;5.75;5.00;;;;;13.09;47.18;99523.53;4684725;29;108985;-76
2021/03/06 00:02:34;;;;;;;;;6.00;4.00;;;;;13.11;46.63;99532.34;4672896;29;103070;-76
2021/03/06 00:05:01;;;;;;;;;7.00;4.75;;;;;13.10;47.49;99536.09;4672124;29;103754;-76
2021/03/06 00:07:28;;;;;;;;;5.25;5.00;;;;;13.08;47.50;99532.72;4690288;29;104142;-76
2021/03/06 00:09:54;;;;;;;;;6.00;4.00;;;;;13.07;46.91;99539.19;4672023;29;104401;-76
2021/03/06 00:12:21;;;;;;;;;6.50;5.00;;;;;13.07;47.44;99535.63;4682120;29;102840;-76
2021/03/06 00:14:48;;;;;;;;;2.50;2.25;;;;;13.07;46.68;99546.47;4685922;29;105874;-76
2021/03/06 00:17:14;;;;;;;;;7.50;6.50;;;;;13.06;47.30;99550.25;4682294;29;103047;-77
2021/03/06 00:19:41;;;;;;;;;5.75;5.00;;;;;13.04;46.41;99536.84;4687935;29;104625;-76
2021/03/06 00:22:08;;;;;;;;;5.50;4.25;;;;;13.04;47.29;99553.16;4692820;29;102992;-76
2021/03/06 00:24:35;;;;;;;;;5.00;5.00;;;;;13.02;47.49;99538.91;4687137;29;102966;-76
2021/03/06 00:27:01;;;;;;;;;4.00;3.50;;;;;13.01;47.58;99548.13;4688321;29;104871;-76
2021/03/06 00:29:28;;;;;;;;;3.25;3.25;;;;;13.00;46.50;99546.44;4683492;29;104144;-77
2021/03/06 00:31:55;;;;;;;;;6.00;4.50;;;;;12.97;46.97;99542.22;4682041;29;103956;-76
2021/03/06 00:34:22;;;;;;;;;4.75;3.50;;;;;12.97;47.32;99555.78;4685176;29;102968;-76
2021/03/06 00:36:48;;;;;;;;;11.25;6.25;;;;;12.97;46.42;99549.50;4673811;29;103185;-76
2021/03/06 00:39:15;;;;;;;;;4.75;4.25;;;;;12.95;47.21;99540.72;4693422;29;104473;-76
2021/03/06 00:41:41;;;;;;;;;5.50;4.25;;;;;12.93;47.51;99540.06;4693511;29;102802;-77
2021/03/06 00:44:08;;;;;;;;;5.25;5.25;;;;;12.93;47.14;99546.34;4685329;29;103401;-76
2021/03/06 00:46:35;;;;;;;;;7.25;5.50;;;;;12.93;47.08;99537.34;4680711;29;105447;-76
2021/03/06 00:49:02;;;;;;;;;5.50;5.00;;;;;12.92;46.61;99536.50;4684871;29;104114;-77
2021/03/06 00:51:29;;;;;;;;;5.00;4.75;;;;;12.90;46.52;99537.75;4673362;29;103663;-76
2021/03/06 00:54:06;;;;;;;;;6.75;5.00;;;;;12.88;46.38;99531.66;4687370;29;102792;-76
2021/03/06 00:56:32;;;;;;;;;6.00;5.00;;;;;12.87;46.44;99540.88;4690382;29;103352;-76
2021/03/06 00:58:59;;;;;;;;;7.00;6.00;;;;;12.88;47.34;99542.53;4687400;29;104863;-76
2021/03/06 01:01:26;;;;;;;;;4.25;4.25;;;;;12.87;46.90;99540.88;4686659;29;103531;-76
2021/03/06 01:03:52;;;;;;;;;5.50;4.50;;;;;12.85;46.30;99542.91;4676802;29;103111;-76
2021/03/06 01:06:19;;;;;;;;;6.00;4.75;;;;;12.84;47.11;99542.06;4665134;29;103823;-76
2021/03/06 01:08:46;;;;;;;;;6.50;4.75;;;;;12.84;46.31;99550.22;4687228;29;103864;-76
2021/03/06 01:11:13;;;;;;;;;6.75;5.75;;;;;12.83;47.26;99551.25;4652083;29;103231;-77
2021/03/06 01:13:40;;;;;;;;;6.50;5.00;;;;;12.82;46.76;99543.31;4675011;29;102677;-77
2021/03/06 01:16:06;;;;;;;;;6.75;5.75;;;;;12.81;46.54;99553.31;4678023;29;102785;-76
2021/03/06 01:18:33;;;;;;;;;5.00;4.75;;;;;12.79;47.17;99559.97;4677769;29;103956;-76
2021/03/06 01:21:01;;;;;;;;;5.50;4.75;;;;;12.78;46.87;99553.72;4679682;29;103078;-76
2021/03/06 01:23:29;;;;;;;;;7.00;6.00;;;;;12.79;47.12;99559.97;4660525;29;102765;-76
2021/03/06 01:25:57;;;;;;;;;6.25;4.50;;;;;12.75;47.03;99545.09;4682735;29;102750;-76
2021/03/06 01:28:24;;;;;;;;;7.00;6.00;;;;;12.76;46.90;99555.78;4686985;29;103879;-76
2021/03/06 01:30:51;;;;;;;;;4.00;4.00;;;;;12.76;47.11;99557.63;4688960;29;103083;-76
2021/03/06 01:33:19;;;;;;;;;6.25;5.00;;;;;12.76;46.29;99560.34;4687806;29;102730;-76
2021/03/06 01:35:46;;;;;;;;;7.00;6.00;;;;;12.74;46.97;99563.25;4689252;29;104284;-76
2021/03/06 01:38:13;;;;;;;;;8.25;5.25;;;;;12.73;46.40;99569.72;4685231;29;104961;-76
2021/03/06 01:40:39;;;;;;;;;4.50;4.50;;;;;12.72;46.57;99564.47;4690572;29;102896;-76
2021/03/06 01:43:08;;;;;;;;;5.50;4.50;;;;;12.71;46.71;99568.22;4682462;29;102793;-76
2021/03/06 01:45:34;;;;;;;;;5.00;5.00;;;;;12.69;46.97;99562.16;4692690;29;103196;-76
2021/03/06 01:48:01;;;;;;;;;6.75;5.50;;;;;12.69;46.89;99560.28;4690127;29;104122;-76
2021/03/06 01:50:32;;;;;;;;;9.00;5.25;;;;;12.68;47.08;99557.75;4675854;29;106259;-76
2021/03/06 01:53:00;;;;;;;;;6.25;5.25;;;;;12.68;46.57;99547.75;4690510;29;103548;-76
2021/03/06 01:55:27;;;;;;;;;6.00;4.25;;;;;12.65;47.04;99550.00;4694663;29;103004;-76
2021/03/06 01:57:54;;;;;;;;;5.00;4.75;;;;;12.64;46.77;99551.03;4670674;29;104026;-76
2021/03/06 02:00:28;;;;;;;;;4.25;4.25;;;;;12.63;46.47;99543.91;4665709;29;103648;-76
2021/03/06 02:02:56;;;;;;;;;6.00;4.00;;;;;12.63;47.05;99543.91;4680268;29;102789;-76
2021/03/06 02:05:22;;;;;;;;;6.25;5.00;;;;;12.63;47.11;99544.75;4680983;29;103322;-76
2021/03/06 02:07:49;;;;;;;;;7.00;6.00;;;;;12.61;46.74;99548.72;4684771;29;104118;-76
2021/03/06 02:10:17;;;;;;;;;5.00;5.00;;;;;12.61;46.90;99548.72;4680488;29;103132;-76
2021/03/06 02:12:54;;;;;;;;;5.00;4.50;;;;;12.60;46.98;99544.31;4670653;29;102920;-76
2021/03/06 02:15:30;;;;;;;;;6.00;5.00;;;;;12.57;46.90;99544.69;4682507;29;103365;-76
2021/03/06 02:18:22;;;;;;;;;6.25;5.25;;;;;12.58;46.43;99557.22;4612233;29;109457;-76
2021/03/06 02:21:01;;;;;;;;;5.25;4.50;;;;;12.56;46.30;99556.59;4677578;29;102929;-76
2021/03/06 02:23:49;;;;;;;;;5.00;4.00;;;;;12.55;46.49;99557.59;4602527;29;103094;-76
2021/03/06 02:26:50;;;;;;;;;5.25;3.50;;;;;12.53;46.14;99555.91;4668401;29;103571;-77
2021/03/06 02:29:32;;;;;;;;;6.00;4.75;;;;;12.51;46.18;99558.00;4609763;29;109908;-77
2021/03/06 02:32:00;;;;;;;;;3.75;3.50;;;;;12.52;45.97;99572.38;4592780;29;102976;-76
2021/03/06 02:34:30;;;;;;;;;7.75;6.00;;;;;12.51;46.22;99562.56;4665072;29;102964;-76
2021/03/06 02:37:02;;;;;;;;;3.00;2.25;;;;;12.49;46.13;99573.59;4668507;29;103029;-76
2021/03/06 02:39:29;;;;;;;;;4.00;4.00;;;;;12.48;46.84;99580.06;4663200;29;104526;-76
2021/03/06 02:41:56;;;;;;;;;6.25;4.75;;;;;12.48;46.71;99585.47;4636404;29;102975;-76
2021/03/06 02:44:23;;;;;;;;;5.50;4.25;;;;;12.47;46.80;99578.38;4668773;29;103063;-75
2021/03/06 02:46:50;;;;;;;;;4.00;3.75;;;;;12.47;46.35;99585.69;4678263;29;103066;-76
2021/03/06 02:49:17;;;;;;;;;4.00;4.00;;;;;12.45;46.09;99585.88;4662223;29;104409;-76
2021/03/06 02:51:47;;;;;;;;;5.00;5.00;;;;;12.46;45.96;99586.72;4664236;29;102958;-77
2021/03/06 02:54:13;;;;;;;;;6.25;5.00;;;;;12.45;46.75;99585.88;4669350;29;102993;-76
2021/03/06 02:56:40;;;;;;;;;6.00;5.00;;;;;12.44;46.50;99589.59;4663310;29;102910;-76
2021/03/06 02:59:44;;;;;;;;;5.75;5.00;;;;;12.44;46.63;99588.75;4670672;29;104251;-76
2021/03/06 03:02:24;;;;;;;;;5.00;4.00;;;;;12.42;46.13;99594.41;4580475;29;102884;-76
2021/03/06 03:05:01;;;;;;;;;4.25;4.25;;;;;12.42;46.05;99588.13;4672276;29;103433;-77
2021/03/06 03:08:10;;;;;;;;;4.75;4.00;;;;;12.41;46.00;99600.84;4590975;29;102951;-76
2021/03/06 03:10:38;;;;;;;;;4.75;4.25;;;;;12.39;46.43;99602.88;4573804;29;109418;-76
2021/03/06 03:13:30;;;;;;;;;4.00;3.25;;;;;12.39;46.74;99608.31;4669365;29;103041;-77
2021/03/06 03:16:15;;;;;;;;;5.25;4.25;;;;;12.38;46.17;99601.19;4669288;29;103310;-76
2021/03/06 03:18:46;;;;;;;;;5.00;5.00;;;;;12.37;45.85;99604.97;4676226;29;104275;-77
2021/03/06 03:21:16;;;;;;;;;5.00;3.00;;;;;12.37;46.16;99612.25;4689477;29;104509;-77
2021/03/06 03:23:50;;;;;;;;;4.00;4.00;;;;;12.34;46.75;99616.16;4685849;29;105086;-76
2021/03/06 03:26:17;;;;;;;;;5.25;4.00;;;;;12.33;46.00;99613.66;4664193;29;102887;-76
2021/03/06 03:28:45;;;;;;;;;4.50;4.00;;;;;12.32;46.51;99610.09;4696073;29;103032;-76
2021/03/06 03:31:12;;;;;;;;;5.50;4.25;;;;;12.33;45.98;99614.50;4650416;29;104163;-77
2021/03/06 03:33:40;;;;;;;;;6.25;5.00;;;;;12.33;45.93;99613.66;4678464;29;102700;-76
2021/03/06 03:36:07;;;;;;;;;4.50;3.75;;;;;12.32;46.08;99618.25;4686573;29;102834;-77
2021/03/06 03:38:34;;;;;;;;;4.75;4.75;;;;;12.31;45.94;99616.56;4686999;29;104909;-76
2021/03/06 03:41:01;;;;;;;;;6.00;4.75;;;;;12.30;46.22;99617.56;4662903;29;104099;-76
2021/03/06 03:43:28;;;;;;;;;5.00;4.00;;;;;12.30;46.73;99611.31;4688062;29;103044;-76
2021/03/06 03:45:55;;;;;;;;;4.00;3.75;;;;;12.28;46.21;99616.94;4688211;29;102759;-76
2021/03/06 03:48:22;;;;;;;;;7.00;4.75;;;;;12.29;46.34;99617.78;4676170;29;103056;-76
2021/03/06 03:50:49;;;;;;;;;6.00;5.00;;;;;12.27;46.11;99615.25;4685572;29;110093;-77
2021/03/06 03:53:16;;;;;;;;;5.50;4.75;;;;;12.26;46.38;99624.41;4672692;29;103120;-76
2021/03/06 03:55:43;;;;;;;;;7.00;5.00;;;;;12.27;45.95;99620.66;4674101;29;103197;-76
2021/03/06 03:58:10;;;;;;;;;4.75;4.25;;;;;12.26;45.87;99620.84;4678407;29;103114;-76
2021/03/06 04:00:37;;;;;;;;;4.75;3.00;;;;;12.25;46.23;99622.72;4690003;29;107128;-77
2021/03/06 04:03:07;;;;;;;;;5.50;4.50;;;;;12.25;45.80;99624.56;4673267;29;102893;-76
2021/03/06 04:05:34;;;;;;;;;5.00;3.25;;;;;12.24;46.55;99628.34;4690177;29;103070;-76
2021/03/06 04:08:01;;;;;;;;;5.75;4.00;;;;;12.22;46.26;99625.81;4674694;29;102799;-76
2021/03/06 04:10:28;;;;;;;;;6.00;6.00;;;;;12.23;46.07;99630.22;4667583;29;104156;-76
2021/03/06 04:12:55;;;;;;;;;5.75;5.00;;;;;12.23;45.72;99630.22;4696186;29;105877;-76
2021/03/06 04:15:22;;;;;;;;;8.00;6.50;;;;;12.24;45.37;99636.47;4675252;29;102916;-76
2021/03/06 04:17:49;;;;;;;;;10.75;6.00;;;;;12.24;46.09;99640.03;4675209;29;105402;-77
2021/03/06 04:20:20;;;;;;;;;7.75;6.50;;;;;12.25;45.78;99647.13;4691986;29;104254;-76
2021/03/06 04:22:47;;;;;;;;;4.00;3.75;;;;;12.25;45.40;99641.69;4694974;29;102983;-77
2021/03/06 04:25:14;;;;;;;;;4.00;4.00;;;;;12.26;45.73;99639.81;4671294;29;103074;-77
2021/03/06 04:27:41;;;;;;;;;6.25;5.00;;;;;12.26;45.46;99637.13;4693869;29;102947;-76
2021/03/06 04:30:09;;;;;;;;;6.00;5.00;;;;;12.27;44.99;99645.06;4686249;29;104619;-77
2021/03/06 04:32:38;;;;;;;;;7.50;6.00;;;;;12.26;45.75;99646.09;4666725;29;103218;-76
2021/03/06 04:35:07;;;;;;;;;7.50;5.00;;;;;12.26;45.26;99650.66;4667346;29;103070;-76
2021/03/06 04:37:33;;;;;;;;;5.00;5.00;;;;;12.23;45.37;99642.91;4686357;29;103077;-76
2021/03/06 04:40:00;;;;;;;;;7.75;6.00;;;;;12.24;45.87;99650.88;4691515;29;106142;-76
2021/03/06 04:42:27;;;;;;;;;6.50;5.75;;;;;12.26;45.43;99656.09;4690462;29;102924;-76
2021/03/06 04:44:54;;;;;;;;;5.25;4.25;;;;;12.26;45.57;99651.53;4696786;29;102988;-76
2021/03/06 04:47:20;;;;;;;;;8.00;6.00;;;;;12.26;46.01;99665.06;4673672;29;102996;-76
2021/03/06 04:49:47;;;;;;;;;5.50;4.25;;;;;12.24;45.19;99669.00;4664052;29;104731;-76
2021/03/06 04:52:14;;;;;;;;;5.25;5.00;;;;;12.24;45.42;99674.44;4691132;29;103275;-76
2021/03/06 04:54:41;;;;;;;;;5.00;5.00;;;;;12.25;45.65;99676.09;4688377;29;105463;-76
2021/03/06 04:57:08;;;;;;;;;5.00;4.75;;;;;12.24;45.28;99677.16;4688742;29;103016;-76
2021/03/06 04:59:35;;;;;;;;;4.75;4.00;;;;;12.22;45.45;99676.47;4690917;29;105395;-77
2021/03/06 05:02:02;;;;;;;;;5.00;4.75;;;;;12.21;45.22;99680.22;4686537;29;102777;-76
2021/03/06 05:04:30;;;;;;;;;5.50;4.00;;;;;12.21;45.75;99670.22;4682677;29;102823;-76
2021/03/06 05:06:56;;;;;;;;;5.50;5.00;;;;;12.17;45.46;99671.63;4691815;29;102985;-76
2021/03/06 05:09:23;;;;;;;;;3.50;2.00;;;;;12.19;45.27;99676.88;4684285;29;104598;-76
2021/03/06 05:11:50;;;;;;;;;5.00;4.00;;;;;12.18;45.25;99684.16;4688485;29;103797;-76
2021/03/06 05:14:16;;;;;;;;;3.50;3.00;;;;;12.16;45.15;99680.78;4691293;29;102876;-76
2021/03/06 05:16:43;;;;;;;;;2.75;2.75;;;;;12.16;45.68;99675.34;4684240;29;102865;-76
2021/03/06 05:19:10;;;;;;;;;3.50;3.00;;;;;12.15;45.29;99681.81;4669796;29;104096;-76
2021/03/06 05:21:37;;;;;;;;;5.50;4.25;;;;;12.13;45.41;99683.84;4653195;29;102732;-76
2021/03/06 05:24:05;;;;;;;;;5.00;4.00;;;;;12.13;45.80;99686.56;4651126;29;102885;-76
2021/03/06 05:26:32;;;;;;;;;5.00;4.00;;;;;12.13;45.59;99688.44;4658998;29;102993;-76
2021/03/06 05:28:59;;;;;;;;;5.75;5.00;;;;;12.11;45.79;99683.22;4653621;29;104190;-76
2021/03/06 05:31:26;;;;;;;;;5.75;4.00;;;;;12.10;45.66;99678.81;4650919;29;102740;-76
2021/03/06 05:33:52;;;;;;;;;5.25;4.00;;;;;12.09;46.02;99685.25;4653464;29;102970;-76
2021/03/06 05:36:19;;;;;;;;;5.75;4.00;;;;;12.10;45.83;99680.69;4652893;29;102895;-77
2021/03/06 05:38:46;;;;;;;;;6.75;4.00;;;;;12.08;45.63;99686.28;4645869;29;103822;-76
2021/03/06 05:41:12;;;;;;;;;5.25;4.75;;;;;12.08;45.55;99686.28;4648295;29;102884;-76
2021/03/06 05:43:39;;;;;;;;;4.75;3.75;;;;;12.06;45.59;99683.78;4649907;29;102890;-76
2021/03/06 05:46:06;;;;;;;;;5.25;4.50;;;;;12.06;45.48;99682.94;4654623;29;102813;-76
2021/03/06 05:48:32;;;;;;;;;4.50;4.00;;;;;12.06;45.54;99685.63;4642580;29;104137;-76
2021/03/06 05:51:01;;;;;;;;;6.00;4.25;;;;;12.03;45.51;99685.97;4644232;29;103014;-76
2021/03/06 05:53:28;;;;;;;;;4.50;4.25;;;;;12.05;45.85;99692.06;4639972;29;102870;-76
2021/03/06 05:55:56;;;;;;;;;4.50;3.75;;;;;12.05;45.47;99700.22;4650541;29;104402;-76
2021/03/06 05:58:22;;;;;;;;;5.25;5.00;;;;;11.98;45.53;99686.53;4647430;29;109076;-76
2021/03/06 06:00:49;;;;;;;;;6.50;4.00;;;;;12.04;45.52;99706.66;4644474;29;102967;-76
2021/03/06 06:03:17;;;;;;;;;6.50;5.25;;;;;12.03;45.65;99705.81;4644973;29;104066;-76
2021/03/06 06:05:47;;;;;;;;;6.00;6.00;;;;;12.04;45.68;99717.50;4649393;29;103009;-76
2021/03/06 06:08:14;;;;;;;;;10.00;7.00;;;;;12.04;45.45;99722.91;4641974;29;103958;-76
2021/03/06 06:10:41;;;;;;;;;8.25;7.00;;;;;12.02;45.70;99725.78;4648864;29;103058;-76
2021/03/06 06:13:07;;;;;;;;;7.00;6.00;;;;;12.02;45.53;99724.97;4639294;29;102991;-76
2021/03/06 06:15:34;;;;;;;;;8.00;6.25;;;;;12.03;45.42;99734.78;4640260;29;104175;-76
2021/03/06 06:18:01;;;;;;;;;5.50;4.75;;;;;12.02;45.44;99735.81;4647880;29;104321;-76
2021/03/06 06:20:28;;;;;;;;;7.00;6.50;;;;;12.02;45.22;99746.66;4662508;29;107334;-76
2021/03/06 06:23:14;;;;;;;;;6.50;4.00;;;;;12.02;45.89;99744.78;4688618;29;103381;-76
2021/03/06 06:25:43;;;;;;;;;8.00;6.75;;;;;12.01;45.34;99750.41;4549547;29;103228;-76
2021/03/06 06:28:17;;;;;;;;;11.25;7.75;;;;;12.02;45.52;99752.09;4661389;29;104187;-77
2021/03/06 06:30:44;;;;;;;;;8.50;5.00;;;;;12.01;45.32;99756.66;4670154;29;103060;-77
2021/03/06 06:33:11;;;;;;;;;10.00;6.25;;;;;12.01;45.34;99766.66;4655747;29;104841;-77
2021/03/06 06:35:42;;;;;;;;;7.00;6.75;;;;;12.00;45.54;99771.25;4659798;29;102822;-77
2021/03/06 06:38:09;;;;;;;;;7.00;7.00;;;;;11.99;45.47;99774.13;4678642;29;105101;-77
2021/03/06 06:40:39;;;;;;;;;6.00;5.00;;;;;11.98;45.94;99767.00;4681926;29;102948;-77
2021/03/06 06:43:23;;;;;;;;;8.25;7.00;;;;;11.99;45.74;99779.53;4670618;29;104840;-78
2021/03/06 06:45:49;;;;;;;;;6.50;5.50;;;;;11.99;45.21;99784.97;4690963;29;103006;-78
2021/03/06 06:48:17;;;;;;;;;9.75;7.00;;;;;11.99;45.55;99788.50;4650861;29;104561;-78
2021/03/06 06:50:44;;;;;;;;;6.25;6.00;;;;;11.98;45.50;99788.69;4678177;29;103579;-77
2021/03/06 06:53:24;;;;;;;;;8.25;6.00;;;;;11.99;45.42;99779.53;4683262;29;103004;-78
2021/03/06 06:55:52;;;;;;;;;7.25;6.25;;;;;11.98;45.23;99783.25;4667320;29;103138;-78
2021/03/06 06:58:39;;;;;;;;;6.75;5.00;;;;;11.98;45.55;99791.41;4616892;29;110397;-78
2021/03/06 07:01:28;;;;;;;;;9.50;7.00;;;;;11.97;45.29;99789.75;4684535;29;103003;-78
2021/03/06 07:04:08;;;;;;;;;10.00;7.00;;;;;11.96;45.11;99788.88;4669497;29;102843;-78
2021/03/06 07:06:35;;;;;;;;;9.00;6.50;;;;;11.97;45.54;99792.44;4690595;29;103137;-77
2021/03/06 07:09:09;;;;;;;;;9.00;6.00;;;;;11.96;45.18;99790.75;4673573;29;104262;-77
2021/03/06 07:11:36;;;;;;;;;6.75;6.25;;;;;11.96;45.38;99790.75;4671612;29;102973;-77
2021/03/06 07:14:03;;;;;;;;;7.50;6.25;;;;;11.97;44.93;99797.88;4692672;29;102914;-77
2021/03/06 07:16:55;;;;;;;;;8.50;7.00;;;;;11.94;45.89;99793.63;4688758;29;102888;-78
2021/03/06 07:19:23;;;;;;;;;9.75;7.00;;;;;11.95;45.33;99792.63;4602992;29;109619;-78
2021/03/06 07:21:50;;;;;;;;;9.00;7.00;;;;;11.94;45.51;99798.22;4681540;29;102893;-78
2021/03/06 07:24:17;;;;;;;;;7.75;7.00;;;;;11.95;46.30;99794.47;4686687;29;104171;-78
2021/03/06 07:26:44;;;;;;;;;8.75;7.50;;;;;11.96;47.15;99798.88;4691186;29;103213;-78
2021/03/06 07:29:11;;;;;;;;;11.00;8.50;;;;;11.95;47.11;99794.47;4687823;29;104054;-78
2021/03/06 07:31:38;;;;;;;;;14.00;13.25;;;;;11.95;45.87;99792.63;4693511;29;102880;-77
2021/03/06 07:34:09;;;;;;;;;20.00;13.25;;;;;11.95;46.42;99795.31;4692710;29;102854;-78
2021/03/06 07:36:36;;;;;;;;;14.25;13.00;;;;;11.96;46.16;99790.75;4670908;29;103061;-78
2021/03/06 07:39:05;;;;;;;;;16.00;12.00;;;;;11.97;46.26;99800.56;4697809;29;103809;-78
2021/03/06 07:41:34;;;;;;;;;13.75;11.00;;;;;11.93;46.10;99786.53;4690895;29;103035;-78
2021/03/06 07:44:01;;;;;;;;;13.25;10.25;;;;;11.97;46.08;99806.00;4676473;29;102990;-78
2021/03/06 07:46:28;;;;;;;;;13.00;12.00;;;;;11.96;45.62;99807.88;4662033;29;102793;-78
2021/03/06 07:48:54;;;;;;;;;13.50;10.50;;;;;11.96;46.11;99801.59;4676621;29;104519;-77
2021/03/06 07:51:22;;;;;;;;;14.50;12.00;;;;;11.97;45.76;99806.00;4636704;29;105990;-78
2021/03/06 07:53:49;;;;;;;;;18.75;12.50;;;;;11.94;45.36;99804.47;4661606;29;103577;-78
2021/03/06 07:56:16;;;;;;;;;17.25;11.50;;;;;11.95;45.38;99805.31;4677176;29;103040;-78
2021/03/06 07:58:49;;;;;;;;;17.00;14.00;;;;;11.95;45.48;99806.16;4696042;29;104410;-78
2021/03/06 08:01:29;;;;;;;;;15.25;13.50;;;;;11.95;45.66;99799.91;4683587;29;104025;-78
2021/03/06 08:03:57;;;;;;;;;14.00;13.00;;;;;11.96;45.58;99801.59;4694818;29;105791;-78
2021/03/06 08:06:27;;;;;;;;;16.25;12.50;;;;;11.94;47.03;99801.75;4676642;29;103092;-78
2021/03/06 08:09:07;;;;;;;;;16.75;13.00;;;;;11.95;46.28;99798.03;4678158;29;104545;-78
2021/03/06 08:11:33;;;;;;;;;19.25;14.50;;;;;11.95;46.27;99792.63;4685200;29;103599;-78
2021/03/06 08:14:03;;;;;;;;;16.50;13.50;;;;;11.96;46.22;99801.59;4686142;29;104786;-78
2021/03/06 08:16:31;;;;;;;;;13.50;11.00;;;;;11.94;46.42;99792.78;4688210;29;102889;-78
2021/03/06 08:19:05;;;;;;;;;13.50;10.75;;;;;11.95;45.75;99794.47;4688940;29;109221;-78
2021/03/06 08:21:37;;;;;;;;;16.50;12.50;;;;;11.91;46.00;99794.00;4676601;29;102935;-78
2021/03/06 08:26:43;;;;;;;;;15.00;11.00;;;;;11.95;45.44;99800.75;4687542;29;102894;-78
2021/03/06 08:29:20;;;;;;;;;16.50;13.00;;;;;11.95;46.17;99806.16;4672726;29;103868;-78
2021/03/06 08:32:07;;;;;;;;;12.00;8.25;;;;;11.94;45.32;99799.06;4684207;29;103150;-79
2021/03/06 08:34:53;;;;;;;;;13.50;11.50;;;;;11.95;45.91;99794.47;4680344;29;103047;-78
2021/03/06 08:37:25;;;;;;;;;17.50;11.75;;;;;11.95;46.04;99806.16;4680422;29;103069;-78
2021/03/06 08:39:53;;;;;;;;;16.25;14.00;;;;;11.94;45.35;99803.63;4682825;29;103958;-78
2021/03/06 08:42:23;;;;;;;;;15.25;12.00;;;;;11.94;45.80;99804.47;4682612;29;102932;-78
2021/03/06 08:44:50;;;;;;;;;13.25;10.75;;;;;11.95;46.62;99802.59;4678234;29;104264;-78
2021/03/06 08:47:31;;;;;;;;;16.75;12.50;;;;;11.96;47.53;99793.47;4668271;29;103008;-78
2021/03/06 08:49:59;;;;;;;;;14.25;11.50;;;;;11.97;46.97;99803.28;4676576;29;103548;-78
2021/03/06 08:52:27;;;;;;;;;13.00;10.25;;;;;11.98;46.60;99804.94;4688087;29;102964;-78
2021/03/06 08:54:54;;;;;;;;;13.25;10.50;;;;;11.97;46.32;99809.56;4681948;29;104549;-78
2021/03/06 08:57:28;;;;;;;;;10.00;8.25;;;;;11.98;46.31;99811.22;4679984;29;103061;-79
2021/03/06 09:00:27;;;;;;;;;11.50;9.75;;;;;11.99;46.37;99806.66;4679043;29;108953;-78
2021/03/06 09:02:54;;;;;;;;;13.50;9.50;;;;;11.98;45.94;99794.09;4676783;29;105000;-78
2021/03/06 09:05:26;;;;;;;;;13.00;9.75;;;;;11.98;46.41;99800.38;4677994;29;102951;-78
2021/03/06 09:07:57;;;;;;;;;12.00;10.00;;;;;11.98;46.37;99794.09;4661661;29;103090;-78
2021/03/06 09:10:40;;;;;;;;;11.50;10.50;;;;;11.99;45.79;99796.66;4675366;29;104096;-79
2021/03/06 09:13:15;;;;;;;;;11.00;11.00;;;;;12.00;46.10;99803.75;4677643;29;103870;-78
2021/03/06 09:15:59;;;;;;;;;14.75;9.75;;;;;12.03;46.70;99800.69;4687038;29;103042;-79
2021/03/06 09:18:38;;;;;;;;;11.25;7.75;;;;;12.13;48.82;99808.56;4653466;29;103017;-79
2021/03/06 09:21:09;;;;;;;;;6.00;5.50;;;;;12.21;51.23;99805.78;4660782;29;109307;-77
2021/03/06 09:23:40;;;;;;;;;5.75;5.75;;;;;12.31;52.13;99809.09;4682923;29;102911;-79
2021/03/06 09:26:14;;;;;;;;;9.75;6.00;;;;;12.39;52.88;99819.88;4684099;29;102901;-79
2021/03/06 09:28:41;;;;;;;;;6.75;5.75;;;;;12.48;53.30;99812.50;4687676;29;103748;-79
2021/03/06 09:31:26;;;;;;;;;6.50;6.00;;;;;12.50;53.00;99811.31;4678424;29;104786;-77
2021/03/06 09:33:54;;;;;;;;;7.00;5.00;;;;;12.55;52.42;99815.34;4682186;29;102873;-78
2021/03/06 09:36:21;;;;;;;;;7.50;5.50;;;;;12.60;52.21;99813.78;4687692;29;103677;-78
2021/03/06 09:38:52;;;;;;;;;4.50;4.00;;;;;12.61;51.94;99809.19;4680113;29;102993;-78
2021/03/06 09:41:20;;;;;;;;;4.00;4.00;;;;;12.61;51.23;99807.28;4665343;29;103807;-78
2021/03/06 09:43:54;;;;;;;;;7.25;5.75;;;;;12.61;51.38;99804.56;4668345;29;103001;-78
2021/03/06 09:46:27;;;;;;;;;7.25;6.00;;;;;12.62;50.94;99803.56;4677980;29;102952;-78
2021/03/06 09:48:57;;;;;;;;;6.75;6.75;;;;;12.62;51.16;99814.41;4688631;29;103218;-78
2021/03/06 09:51:36;;;;;;;;;6.25;5.50;;;;;12.64;50.92;99814.25;4675346;29;104026;-78
2021/03/06 09:54:03;;;;;;;;;5.50;4.50;;;;;12.65;50.76;99818.66;4687934;29;103788;-78
2021/03/06 09:56:30;;;;;;;;;8.50;7.25;;;;;12.63;50.81;99815.25;4668574;29;103060;-78
2021/03/06 09:58:58;;;;;;;;;5.00;5.00;;;;;12.65;50.76;99818.66;4688545;29;103015;-77
2021/03/06 10:01:25;;;;;;;;;7.25;6.00;;;;;12.63;50.43;99821.53;4687047;29;104163;-77
2021/03/06 10:03:52;;;;;;;;;6.25;5.00;;;;;12.63;49.75;99821.53;4669900;29;102967;-78
2021/03/06 10:06:23;;;;;;;;;12.25;7.00;;;;;12.64;49.79;99819.66;4687418;29;102953;-77
2021/03/06 10:08:53;;;;;;;;;8.00;7.25;;;;;12.63;49.80;99815.25;4667818;29;103089;-77
2021/03/06 10:11:26;;;;;;;;;5.50;5.25;;;;;12.62;49.65;99808.13;4684413;29;104381;-77
2021/03/06 10:13:53;;;;;;;;;6.75;6.25;;;;;12.62;49.52;99808.13;4668093;29;102808;-78
2021/03/06 10:16:20;;;;;;;;;7.00;5.00;;;;;12.63;49.49;99821.53;4662099;29;104457;-77
2021/03/06 10:18:47;;;;;;;;;7.00;5.00;;;;;12.62;49.50;99805.44;4667515;29;103521;-77
2021/03/06 10:21:16;;;;;;;;;6.50;5.75;;;;;12.63;49.83;99818.81;4686328;29;104565;-77
2021/03/06 10:23:43;;;;;;;;;5.75;5.75;;;;;12.62;49.83;99813.56;4685018;29;102783;-77
2021/03/06 10:26:17;;;;;;;;;8.50;7.00;;;;;12.61;49.45;99823.56;4663271;29;103101;-77
2021/03/06 10:28:45;;;;;;;;;7.75;5.50;;;;;12.63;48.75;99810.69;4689455;29;102986;-77
2021/03/06 10:31:31;;;;;;;;;4.50;4.50;;;;;12.65;49.31;99791.50;4664152;29;104429;-77
2021/03/06 10:33:59;;;;;;;;;6.75;4.25;;;;;12.62;48.48;99802.72;4678399;29;102821;-77
2021/03/06 10:36:26;;;;;;;;;6.25;5.50;;;;;12.64;48.54;99806.94;4671000;29;103671;-78
2021/03/06 10:39:22;;;;;;;;;5.75;4.25;;;;;12.64;48.81;99812.38;4682478;29;102947;-77
2021/03/06 10:41:57;;;;;;;;;5.00;4.00;;;;;12.63;48.31;99810.69;4604398;29;108682;-77
2021/03/06 10:44:41;;;;;;;;;5.50;5.00;;;;;12.63;48.59;99815.25;4678342;29;104030;-77
2021/03/06 10:47:08;;;;;;;;;7.50;6.75;;;;;12.62;47.84;99808.97;4671632;29;102817;-77
2021/03/06 10:49:38;;;;;;;;;6.75;5.75;;;;;12.63;48.50;99809.84;4682489;29;102744;-77
2021/03/06 10:52:06;;;;;;;;;11.00;6.00;;;;;12.63;47.86;99815.25;4688969;29;111768;-77
2021/03/06 10:54:49;;;;;;;;;5.75;5.75;;;;;12.64;47.89;99806.94;4687996;29;102729;-77
2021/03/06 10:57:16;;;;;;;;;5.00;5.00;;;;;12.62;48.54;99808.13;4635829;29;102982;-77
2021/03/06 10:59:43;;;;;;;;;7.50;6.00;;;;;12.61;47.45;99801.06;4692305;29;102872;-77
2021/03/06 11:02:30;;;;;;;;;7.00;5.25;;;;;12.62;48.36;99802.72;4682017;29;103835;-77
2021/03/06 11:05:17;;;;;;;;;5.00;5.00;;;;;12.59;48.26;99797.66;4687048;29;102990;-77
2021/03/06 11:07:43;;;;;;;;;6.00;4.25;;;;;12.59;48.13;99794.94;4609866;29;105365;-77
2021/03/06 11:10:11;;;;;;;;;6.75;6.00;;;;;12.59;47.33;99786.81;4687200;29;102960;-77
2021/03/06 11:12:37;;;;;;;;;6.00;5.00;;;;;12.57;48.07;99788.84;4693657;29;104070;-76
2021/03/06 11:15:11;;;;;;;;;7.00;4.75;;;;;12.58;47.78;99795.97;4681283;29;102840;-77
2021/03/06 11:17:38;;;;;;;;;6.00;5.00;;;;;12.53;47.79;99775.66;4685508;29;102681;-77
2021/03/06 11:20:07;;;;;;;;;7.00;6.00;;;;;12.55;47.50;99770.06;4689787;29;103006;-78
2021/03/06 11:22:34;;;;;;;;;10.00;5.00;;;;;12.56;47.69;99770.91;4659015;29;109763;-77
2021/03/06 11:25:06;;;;;;;;;5.00;5.00;;;;;12.57;47.53;99772.56;4676338;29;102931;-77
2021/03/06 11:27:45;;;;;;;;;5.00;4.50;;;;;12.58;47.21;99774.25;4667623;29;102799;-77
2021/03/06 11:30:12;;;;;;;;;7.00;6.00;;;;;12.56;46.92;99771.75;4671992;29;102961;-77
2021/03/06 11:32:39;;;;;;;;;3.75;3.50;;;;;12.55;46.64;99769.22;4677446;29;104031;-77
2021/03/06 11:35:07;;;;;;;;;5.00;4.75;;;;;12.55;46.73;99770.06;4666803;29;102928;-78
2021/03/06 11:37:33;;;;;;;;;7.50;5.00;;;;;12.53;46.61;99762.09;4667156;29;102887;-78